createdAt,value
2019-04-25T00:00:40.512Z,66.26
2019-04-25T00:01:21.537Z,66.26
2019-04-25T00:02:01.811Z,66.45
2019-04-25T00:02:42.589Z,66.74
2019-04-25T00:03:22.280Z,65.78
2019-04-25T00:04:02.399Z,66.45
2019-04-25T00:04:43.461Z,66.45
2019-04-25T00:05:23.536Z,66.16
2019-04-25T00:06:04.068Z,66.26
2019-04-25T00:06:44.956Z,66.64
2019-04-25T00:07:25.230Z,66.55
2019-04-25T00:08:05.830Z,66.35
2019-04-25T00:08:46.372Z,66.74
2019-04-25T00:09:26.961Z,66.74
2019-04-25T00:10:07.534Z,66.83
2019-04-25T00:10:48.090Z,66.83
2019-04-25T00:11:28.689Z,66.83
2019-04-25T00:12:09.274Z,66.83
2019-04-25T00:12:49.837Z,66.64
2019-04-25T00:13:31.707Z,66.74
2019-04-25T00:14:13.305Z,66.74
2019-04-25T00:14:52.256Z,66.64
2019-04-25T00:15:32.843Z,66.64
2019-04-25T00:16:13.453Z,66.74
2019-04-25T00:16:54.044Z,66.93
2019-04-25T00:17:34.597Z,66.93
2019-04-25T00:18:15.175Z,67.02
2019-04-25T00:18:55.779Z,67.02
2019-04-25T00:19:36.392Z,66.74
2019-04-25T00:20:17.093Z,66.83
2019-04-25T00:20:57.680Z,66.83
2019-04-25T00:21:39.117Z,66.55
2019-04-25T00:22:18.796Z,66.74
2019-04-25T00:22:59.402Z,66.83
2019-04-25T00:23:41.706Z,66.83
2019-04-25T00:24:21.841Z,66.74
2019-04-25T00:25:14.236Z,66.93
2019-04-25T00:25:45.193Z,66.64
2019-04-25T00:26:22.396Z,67.02
2019-04-25T00:27:05.762Z,66.64
2019-04-25T00:27:47.291Z,66.74
2019-04-25T00:28:27.925Z,66.83
2019-04-25T00:29:08.515Z,67.02
2019-04-25T00:29:49.128Z,66.74
2019-04-25T00:30:31.169Z,66.64
2019-04-25T00:31:11.870Z,67.22
2019-04-25T00:31:51.316Z,67.12
2019-04-25T00:32:31.619Z,67.6
2019-04-25T00:33:11.974Z,67.32
2019-04-25T00:33:53.333Z,67.89
2019-04-25T00:34:33.670Z,67.6
2019-04-25T00:35:13.680Z,67.69
2019-04-25T00:35:54.272Z,67.99
2019-04-25T00:36:34.851Z,68.08
2019-04-25T00:37:15.457Z,68.27
2019-04-25T00:37:56.006Z,68.18
2019-04-25T00:38:36.578Z,68.27
2019-04-25T00:39:17.134Z,68.18
2019-04-25T00:39:57.729Z,68.37
2019-04-25T00:40:38.340Z,68.56
2019-04-25T00:41:18.890Z,68.46
2019-04-25T00:41:59.457Z,69.13
2019-04-25T00:42:41.576Z,69.13
2019-04-25T00:43:21.453Z,69.23
2019-04-25T00:44:02.384Z,68.85
2019-04-25T00:44:43.709Z,69.9
2019-04-25T00:45:22.443Z,69.42
2019-04-25T00:46:02.962Z,69.71
2019-04-25T00:46:47.633Z,70
2019-04-25T00:47:24.107Z,70
2019-04-25T00:48:04.682Z,69.9
2019-04-25T00:48:45.711Z,70
2019-04-25T00:49:25.824Z,69.81
2019-04-25T00:50:06.407Z,69.52
2019-04-25T00:50:47.919Z,69.42
2019-04-25T00:51:27.629Z,69.9
2019-04-25T00:52:08.181Z,69.9
2019-04-25T00:52:48.818Z,69.71
2019-04-25T00:53:29.349Z,69.81
2019-04-25T00:54:09.930Z,69.81
2019-04-25T00:54:52.266Z,70.09
2019-04-25T00:55:31.495Z,70.19
2019-04-25T00:56:11.689Z,69.9
2019-04-25T00:56:52.788Z,69.81
2019-04-25T00:57:32.806Z,70.57
2019-04-25T00:58:13.380Z,70.57
2019-04-25T00:58:54.123Z,70.38
2019-04-25T00:59:34.557Z,70.57
2019-04-25T01:00:15.111Z,70.76
2019-04-25T01:00:55.746Z,70.67
2019-04-25T01:01:36.357Z,70.57
2019-04-25T01:02:16.925Z,70.48
2019-04-25T01:02:57.501Z,70.48
2019-04-25T01:03:38.059Z,70.38
2019-04-25T01:04:18.635Z,70.67
2019-04-25T01:04:59.211Z,70.67
2019-04-25T01:05:39.775Z,70.86
2019-04-25T01:06:21.890Z,70.86
2019-04-25T01:07:01.444Z,70.48
2019-04-25T01:07:42.171Z,70.57
2019-04-25T01:08:22.193Z,70.57
2019-04-25T01:09:02.766Z,70.86
2019-04-25T01:09:43.501Z,70.67
2019-04-25T01:10:23.910Z,70.76
2019-04-25T01:11:04.484Z,70.67
2019-04-25T01:11:45.856Z,70.76
2019-04-25T01:12:25.632Z,70.86
2019-04-25T01:13:06.217Z,71.25
2019-04-25T01:13:46.807Z,70.96
2019-04-25T01:14:27.378Z,71.15
2019-04-25T01:15:07.935Z,71.53
2019-04-25T01:15:48.514Z,71.34
2019-04-25T01:16:29.041Z,70.92
2019-04-25T01:17:09.594Z,71.02
2019-04-25T01:17:51.464Z,71.4
2019-04-25T01:18:31.380Z,71.59
2019-04-25T01:19:11.335Z,71.21
2019-04-25T01:19:51.901Z,71.4
2019-04-25T01:20:32.461Z,71.88
2019-04-25T01:21:14.106Z,71.4
2019-04-25T01:21:54.936Z,71.88
2019-04-25T01:22:34.370Z,71.82
2019-04-25T01:23:14.750Z,71.88
2019-04-25T01:23:55.775Z,71.78
2019-04-25T01:24:35.909Z,71.88
2019-04-25T01:25:16.468Z,71.59
2019-04-25T01:25:57.035Z,71.78
2019-04-25T01:26:37.629Z,71.59
2019-04-25T01:27:18.208Z,71.63
2019-04-25T01:27:58.776Z,71.78
2019-04-25T01:28:39.347Z,71.88
2019-04-25T01:29:19.943Z,71.88
2019-04-25T01:30:00.551Z,71.92
2019-04-25T01:30:41.146Z,71.72
2019-04-25T01:31:21.696Z,71.72
2019-04-25T01:32:03.230Z,71.92
2019-04-25T01:32:44.606Z,71.82
2019-04-25T01:33:23.391Z,71.92
2019-04-25T01:34:04.327Z,71.82
2019-04-25T01:34:44.560Z,72.01
2019-04-25T01:35:25.088Z,72.01
2019-04-25T01:36:05.726Z,71.82
2019-04-25T01:36:47.175Z,71.92
2019-04-25T01:37:26.976Z,71.69
2019-04-25T01:38:07.532Z,71.72
2019-04-25T01:38:49.105Z,72.07
2019-04-25T01:39:28.739Z,72.11
2019-04-25T01:40:09.320Z,72.01
2019-04-25T01:40:49.905Z,71.82
2019-04-25T01:41:30.494Z,72.01
2019-04-25T01:42:11.089Z,71.92
2019-04-25T01:42:51.696Z,71.92
2019-04-25T01:43:33.115Z,72.01
2019-04-25T01:44:14.302Z,71.92
2019-04-25T01:44:56.246Z,72.11
2019-04-25T01:45:34.084Z,71.92
2019-04-25T01:46:14.897Z,71.82
2019-04-25T01:46:56.439Z,71.82
2019-04-25T01:47:35.936Z,71.92
2019-04-25T01:48:16.521Z,71.92
2019-04-25T01:48:57.077Z,72.01
2019-04-25T01:49:37.649Z,71.82
2019-04-25T01:50:18.239Z,71.92
2019-04-25T01:50:58.810Z,72.01
2019-04-25T01:51:39.377Z,72.01
2019-04-25T01:52:19.951Z,71.82
2019-04-25T01:53:00.547Z,71.92
2019-04-25T01:53:41.131Z,71.92
2019-04-25T01:54:21.730Z,71.82
2019-04-25T01:55:03.444Z,72.11
2019-04-25T01:55:53.241Z,71.92
2019-04-25T01:56:24.745Z,71.82
2019-04-25T01:57:04.394Z,72.01
2019-04-25T01:57:45.298Z,72.11
2019-04-25T01:58:25.246Z,72.11
2019-04-25T01:59:05.830Z,72.11
2019-04-25T01:59:46.380Z,72.11
2019-04-25T02:00:26.934Z,72.11
2019-04-25T02:01:07.579Z,72.11
2019-04-25T02:01:48.171Z,72.11
2019-04-25T02:02:28.751Z,72.11
2019-04-25T02:03:09.312Z,71.92
2019-04-25T02:03:50.388Z,71.72
2019-04-25T02:04:30.443Z,71.92
2019-04-25T02:05:11.035Z,71.92
2019-04-25T02:05:51.587Z,71.72
2019-04-25T02:06:33.437Z,71.53
2019-04-25T02:07:13.458Z,71.82
2019-04-25T02:07:54.713Z,71.82
2019-04-25T02:08:34.033Z,71.82
2019-04-25T02:09:14.458Z,71.92
2019-04-25T02:09:55.925Z,71.92
2019-04-25T02:10:35.620Z,71.92
2019-04-25T02:11:16.189Z,72.01
2019-04-25T02:11:56.847Z,72.49
2019-04-25T02:12:37.343Z,72.39
2019-04-25T02:13:17.897Z,72.49
2019-04-25T02:13:58.873Z,72.68
2019-04-25T02:14:39.087Z,72.39
2019-04-25T02:15:19.668Z,72.88
2019-04-25T02:16:00.211Z,72.78
2019-04-25T02:16:40.854Z,73.16
2019-04-25T02:17:21.488Z,72.78
2019-04-25T02:18:03.654Z,72.88
2019-04-25T02:18:43.538Z,72.78
2019-04-25T02:19:24.146Z,73.35
2019-04-25T02:20:04.222Z,73.55
2019-04-25T02:20:44.464Z,73.7
2019-04-25T02:21:25.046Z,73.65
2019-04-25T02:22:05.606Z,73.74
2019-04-25T02:22:46.217Z,73.99
2019-04-25T02:23:26.770Z,74.47
2019-04-25T02:24:07.358Z,74.18
2019-04-25T02:24:47.889Z,74.08
2019-04-25T02:25:28.489Z,74.47
2019-04-25T02:26:15.861Z,74.37
2019-04-25T02:26:49.641Z,74.27
2019-04-25T02:27:30.209Z,75.04
2019-04-25T02:28:10.822Z,74.85
2019-04-25T02:28:52.349Z,75.14
2019-04-25T02:29:33.241Z,75.33
2019-04-25T02:30:15.123Z,75.14
2019-04-25T02:30:57.082Z,75.52
2019-04-25T02:31:34.713Z,75.33
2019-04-25T02:32:14.784Z,76.48
2019-04-25T02:32:58.435Z,75.9
2019-04-25T02:33:35.998Z,76.29
2019-04-25T02:34:18.087Z,76.29
2019-04-25T02:34:59.565Z,76.48
2019-04-25T02:35:37.733Z,76.67
2019-04-25T02:36:18.372Z,76.86
2019-04-25T02:37:01.409Z,77.31
2019-04-25T02:37:39.566Z,77.21
2019-04-25T02:38:20.162Z,77.4
2019-04-25T02:39:03.160Z,77.11
2019-04-25T02:39:41.350Z,77.4
2019-04-25T02:40:23.680Z,77.25
2019-04-25T02:41:06.353Z,77.21
2019-04-25T02:41:44.471Z,77.44
2019-04-25T02:42:24.553Z,77.4
2019-04-25T02:43:07.896Z,77.82
2019-04-25T02:43:45.245Z,77.63
2019-04-25T02:44:25.359Z,77.78
2019-04-25T02:45:08.142Z,77.59
2019-04-25T02:45:46.615Z,77.63
2019-04-25T02:46:27.169Z,77.97
2019-04-25T02:47:08.406Z,77.88
2019-04-25T02:47:48.387Z,77.78
2019-04-25T02:48:28.987Z,78.45
2019-04-25T02:49:09.788Z,78.36
2019-04-25T02:49:50.118Z,78.17
2019-04-25T02:50:30.704Z,78.27
2019-04-25T02:51:11.277Z,78.17
2019-04-25T02:51:51.841Z,78.27
2019-04-25T02:52:34.150Z,78.27
2019-04-25T02:53:14.096Z,77.97
2019-04-25T02:53:53.767Z,78.84
2019-04-25T02:54:34.784Z,78.55
2019-04-25T02:55:27.802Z,78.55
2019-04-25T02:55:56.367Z,78.74
2019-04-25T02:56:38.767Z,78.45
2019-04-25T02:57:16.417Z,78.45
2019-04-25T02:57:58.259Z,78.93
2019-04-25T02:58:37.624Z,79.13
2019-04-25T02:59:18.195Z,78.84
2019-04-25T02:59:58.763Z,79.03
2019-04-25T03:00:52.266Z,78.84
2019-04-25T03:01:23.227Z,78.93
2019-04-25T03:02:00.776Z,79.03
2019-04-25T03:02:41.053Z,79.22
2019-04-25T03:03:21.626Z,79.41
2019-04-25T03:04:03.192Z,78.74
2019-04-25T03:04:44.418Z,79.41
2019-04-25T03:05:25.516Z,79.41
2019-04-25T03:06:07.126Z,79.89
2019-04-25T03:06:45.174Z,79.32
2019-04-25T03:07:25.128Z,79.41
2019-04-25T03:08:08.764Z,79.13
2019-04-25T03:08:46.317Z,79.41
2019-04-25T03:09:26.913Z,79.41
2019-04-25T03:10:09.268Z,79.7
2019-04-25T03:10:48.105Z,79.41
2019-04-25T03:11:28.674Z,79.7
2019-04-25T03:12:09.476Z,79.41
2019-04-25T03:12:49.866Z,79.8
2019-04-25T03:13:30.436Z,79.89
2019-04-25T03:14:10.982Z,79.99
2019-04-25T03:14:51.586Z,79.89
2019-04-25T03:15:34.134Z,79.89
2019-04-25T03:16:13.916Z,79.89
2019-04-25T03:16:54.311Z,80.27
2019-04-25T03:17:34.305Z,80.08
2019-04-25T03:18:15.166Z,79.8
2019-04-25T03:18:55.154Z,79.8
2019-04-25T03:19:35.753Z,80.08
2019-04-25T03:20:16.338Z,80.18
2019-04-25T03:20:59.135Z,79.89
2019-04-25T03:21:37.615Z,79.99
2019-04-25T03:22:18.164Z,79.89
2019-04-25T03:22:59.901Z,80.08
2019-04-25T03:23:42.373Z,80.08
2019-04-25T03:24:19.874Z,79.7
2019-04-25T03:25:01.995Z,79.99
2019-04-25T03:25:41.039Z,79.7
2019-04-25T03:26:23.311Z,79.89
2019-04-25T03:27:03.274Z,79.89
2019-04-25T03:27:44.057Z,79.7
2019-04-25T03:28:23.847Z,79.6
2019-04-25T03:29:05.198Z,79.8
2019-04-25T03:29:45.688Z,79.8
2019-04-25T03:30:25.610Z,79.03
2019-04-25T03:31:11.123Z,79.51
2019-04-25T03:31:46.249Z,79.22
2019-04-25T03:32:28.327Z,79.51
2019-04-25T03:33:11.815Z,79.41
2019-04-25T03:33:48.088Z,79.41
2019-04-25T03:34:28.638Z,79.32
2019-04-25T03:35:09.242Z,79.41
2019-04-25T03:35:49.844Z,79.6
2019-04-25T03:36:30.427Z,79.41
2019-04-25T03:37:11.519Z,78.93
2019-04-25T03:37:51.575Z,79.22
2019-04-25T03:38:32.167Z,78.74
2019-04-25T03:39:14.531Z,78.84
2019-04-25T03:39:53.580Z,78.74
2019-04-25T03:40:34.062Z,78.45
2019-04-25T03:41:14.746Z,78.74
2019-04-25T03:41:55.059Z,78.45
2019-04-25T03:42:35.703Z,78.07
2019-04-25T03:43:16.280Z,78.3
2019-04-25T03:43:56.899Z,78.27
2019-04-25T03:44:37.492Z,78.27
2019-04-25T03:45:18.100Z,77.78
2019-04-25T03:45:58.665Z,77.88
2019-04-25T03:46:39.274Z,77.82
2019-04-25T03:47:19.835Z,77.82
2019-04-25T03:48:01.140Z,77.92
2019-04-25T03:48:40.987Z,77.53
2019-04-25T03:49:21.557Z,77.53
2019-04-25T03:50:03.264Z,77.69
2019-04-25T03:50:44.103Z,77.73
2019-04-25T03:51:23.967Z,77.88
2019-04-25T03:52:05.249Z,77.88
2019-04-25T03:52:44.514Z,77.88
2019-04-25T03:53:25.082Z,77.69
2019-04-25T03:54:07.394Z,77.63
2019-04-25T03:54:46.281Z,77.59
2019-04-25T03:55:26.841Z,77.59
2019-04-25T03:56:08.600Z,77.78
2019-04-25T03:56:53.343Z,77.69
2019-04-25T03:57:28.580Z,77.78
2019-04-25T03:58:10.867Z,77.59
2019-04-25T03:58:49.781Z,77.5
2019-04-25T03:59:30.333Z,77.31
2019-04-25T04:00:10.901Z,77.44
2019-04-25T04:00:51.494Z,77.59
2019-04-25T04:01:32.100Z,77.78
2019-04-25T04:02:13.427Z,77.69
2019-04-25T04:02:53.703Z,77.88
2019-04-25T04:03:34.003Z,77.78
2019-04-25T04:04:16.213Z,78.45
2019-04-25T04:04:54.960Z,78.27
2019-04-25T04:05:35.585Z,78.17
2019-04-25T04:06:16.205Z,78.55
2019-04-25T04:06:56.815Z,78.17
2019-04-25T04:07:37.383Z,78.55
2019-04-25T04:08:17.984Z,78.55
2019-04-25T04:08:58.559Z,78.55
2019-04-25T04:09:39.118Z,78.27
2019-04-25T04:10:21.164Z,78.55
2019-04-25T04:11:00.292Z,78.45
2019-04-25T04:11:40.876Z,78.55
2019-04-25T04:12:21.458Z,78.55
2019-04-25T04:13:02.044Z,78.36
2019-04-25T04:13:43.955Z,78.55
2019-04-25T04:14:23.932Z,79.13
2019-04-25T04:15:05.584Z,79.22
2019-04-25T04:15:44.359Z,79.03
2019-04-25T04:16:24.926Z,78.84
2019-04-25T04:17:06.664Z,78.84
2019-04-25T04:17:46.100Z,78.93
2019-04-25T04:18:27.083Z,78.93
2019-04-25T04:19:07.234Z,79.22
2019-04-25T04:19:47.824Z,78.55
2019-04-25T04:20:28.457Z,78.36
2019-04-25T04:21:09.085Z,79.13
2019-04-25T04:21:49.680Z,78.42
2019-04-25T04:22:30.295Z,78.74
2019-04-25T04:23:11.309Z,78.32
2019-04-25T04:23:51.435Z,78.32
2019-04-25T04:24:34.048Z,78.13
2019-04-25T04:25:13.827Z,78.13
2019-04-25T04:25:54.565Z,77.65
2019-04-25T04:26:33.790Z,77.75
2019-04-25T04:27:15.553Z,77.55
2019-04-25T04:27:54.971Z,77.36
2019-04-25T04:28:35.548Z,77.55
2019-04-25T04:29:16.467Z,77.55
2019-04-25T04:29:56.722Z,78.03
2019-04-25T04:30:37.286Z,77.17
2019-04-25T04:31:17.863Z,77.17
2019-04-25T04:31:58.423Z,76.98
2019-04-25T04:32:39.361Z,76.31
2019-04-25T04:33:28.019Z,76.31
2019-04-25T04:34:00.477Z,76.31
2019-04-25T04:34:41.063Z,76.02
2019-04-25T04:35:23.362Z,75.83
2019-04-25T04:36:03.749Z,75.93
2019-04-25T04:36:43.708Z,75.54
2019-04-25T04:37:23.695Z,75.35
2019-04-25T04:38:04.286Z,75.64
2019-04-25T04:38:44.568Z,75.35
2019-04-25T04:39:25.140Z,75.64
2019-04-25T04:40:05.724Z,75.64
2019-04-25T04:40:46.285Z,75.64
2019-04-25T04:41:26.884Z,75.64
2019-04-25T04:42:07.550Z,75.16
2019-04-25T04:42:48.096Z,74.97
2019-04-25T04:43:28.743Z,75.07
2019-04-25T04:44:09.980Z,74.97
2019-04-25T04:44:49.909Z,75.07
2019-04-25T04:45:30.504Z,75.07
2019-04-25T04:46:11.079Z,74.77
2019-04-25T04:46:51.661Z,74.58
2019-04-25T04:47:33.214Z,74.87
2019-04-25T04:48:14.447Z,74.68
2019-04-25T04:48:53.895Z,74.49
2019-04-25T04:49:34.220Z,74.2
2019-04-25T04:50:15.364Z,74.4
2019-04-25T04:50:55.164Z,74.4
2019-04-25T04:51:35.751Z,74.4
2019-04-25T04:52:16.975Z,74.4
2019-04-25T04:52:56.934Z,74.3
2019-04-25T04:53:37.506Z,74.11
2019-04-25T04:54:18.076Z,74.4
2019-04-25T04:55:06.166Z,74.49
2019-04-25T04:55:39.213Z,74.58
2019-04-25T04:56:19.824Z,74.4
2019-04-25T04:57:00.395Z,74.4
2019-04-25T04:57:40.975Z,74.4
2019-04-25T04:58:21.521Z,74.49
2019-04-25T04:59:03.617Z,74.11
2019-04-25T04:59:43.819Z,74.11
2019-04-25T05:00:24.620Z,74.11
2019-04-25T05:01:03.847Z,74.01
2019-04-25T05:01:44.947Z,74.3
2019-04-25T05:02:25.002Z,74.2
2019-04-25T05:03:05.564Z,74.2
2019-04-25T05:03:46.166Z,74.58
2019-04-25T05:04:26.720Z,74.49
2019-04-25T05:07:40.750Z,74.87
2019-04-25T05:08:21.329Z,74.97
2019-04-25T05:09:03.306Z,74.58
2019-04-25T05:09:43.506Z,74.87
2019-04-25T05:10:23.696Z,74.87
2019-04-25T05:11:04.079Z,74.58
2019-04-25T05:11:44.436Z,74.11
2019-04-25T05:12:24.991Z,74.3
2019-04-25T05:13:05.594Z,74.4
2019-04-25T05:13:46.251Z,74.4
2019-04-25T05:14:26.911Z,74.11
2019-04-25T05:15:07.475Z,74.2
2019-04-25T05:15:48.142Z,74.11
2019-04-25T05:16:28.706Z,73.82
2019-04-25T05:17:09.304Z,73.82
2019-04-25T05:17:49.881Z,74.3
2019-04-25T05:18:36.742Z,74.11
2019-04-25T05:19:11.512Z,74.2
2019-04-25T05:19:53.034Z,74.01
2019-04-25T05:20:32.228Z,74.2
2019-04-25T05:21:14.801Z,74.3
2019-04-25T05:21:53.745Z,74.3
2019-04-25T05:22:33.964Z,74.01
2019-04-25T05:23:15.083Z,74.01
2019-04-25T05:23:55.125Z,74.11
2019-04-25T05:24:35.696Z,74.11
2019-04-25T05:25:17.671Z,74.4
2019-04-25T05:25:56.897Z,74.49
2019-04-25T05:26:37.469Z,74.58
2019-04-25T05:27:32.085Z,74.58
2019-04-25T05:28:02.807Z,74.49
2019-04-25T05:28:39.297Z,74.3
2019-04-25T05:29:22.007Z,74.49
2019-04-25T05:30:00.470Z,74.2
2019-04-25T05:30:41.062Z,74.01
2019-04-25T05:31:21.653Z,74.2
2019-04-25T05:32:03.778Z,74.11
2019-04-25T05:32:44.193Z,74.11
2019-04-25T05:33:24.183Z,74.01
2019-04-25T05:34:03.989Z,73.91
2019-04-25T05:34:46.115Z,74.11
2019-04-25T05:35:25.419Z,74.49
2019-04-25T05:36:05.976Z,74.3
2019-04-25T05:36:46.419Z,74.3
2019-04-25T05:37:26.999Z,74.2
2019-04-25T05:38:07.593Z,74.49
2019-04-25T05:38:48.193Z,74.49
2019-04-25T05:39:28.743Z,74.77
2019-04-25T05:40:09.301Z,74.4
2019-04-25T05:40:49.870Z,74.3
2019-04-25T05:41:30.445Z,74.4
2019-04-25T05:42:11.039Z,74.3
2019-04-25T05:42:51.619Z,73.91
2019-04-25T05:43:33.384Z,73.54
2019-04-25T05:44:14.216Z,73.82
2019-04-25T05:44:54.079Z,73.54
2019-04-25T05:45:34.179Z,73.34
2019-04-25T05:46:15.326Z,73.15
2019-04-25T05:46:55.153Z,73.54
2019-04-25T05:47:35.727Z,73.34
2019-04-25T05:48:17.173Z,73.44
2019-04-25T05:48:56.867Z,73.15
2019-04-25T05:49:37.422Z,73.24
2019-04-25T05:50:18.009Z,73.44
2019-04-25T05:50:58.658Z,73.15
2019-04-25T05:51:39.172Z,72.67
2019-04-25T05:52:19.906Z,72.67
2019-04-25T05:53:00.287Z,72.77
2019-04-25T05:53:40.857Z,72.99
2019-04-25T05:54:21.504Z,72.9
2019-04-25T05:55:01.997Z,72.32
2019-04-25T05:55:43.971Z,72.52
2019-04-25T05:56:24.616Z,72.52
2019-04-25T05:57:03.791Z,72.23
2019-04-25T05:57:47.870Z,71.84
2019-04-25T05:58:25.781Z,71.37
2019-04-25T05:59:05.588Z,71.37
2019-04-25T05:59:45.915Z,71.27
2019-04-25T06:00:27.112Z,71.27
2019-04-25T06:01:07.040Z,71.08
2019-04-25T06:01:47.587Z,71.08
2019-04-25T06:02:28.146Z,70.83
2019-04-25T06:03:08.797Z,70.41
2019-04-25T06:03:49.387Z,70.44
2019-04-25T06:04:29.953Z,70.44
2019-04-25T06:05:10.579Z,70.15
2019-04-25T06:05:51.208Z,70.15
2019-04-25T06:06:34.833Z,69.96
2019-04-25T06:07:12.350Z,69.77
2019-04-25T06:07:54.271Z,69.87
2019-04-25T06:08:34.116Z,69.33
2019-04-25T06:09:14.170Z,69.52
2019-04-25T06:09:54.826Z,69.04
2019-04-25T06:10:35.421Z,68.95
2019-04-25T06:11:15.987Z,68.66
2019-04-25T06:11:56.638Z,67.22
2019-04-25T06:12:37.192Z,66.96
2019-04-25T06:13:18.140Z,66.49
2019-04-25T06:14:00.261Z,66.1
2019-04-25T06:14:38.967Z,65.33
2019-04-25T06:15:19.954Z,64.66
2019-04-25T06:16:00.106Z,64.89
2019-04-25T06:16:40.689Z,64.4
2019-04-25T06:17:21.479Z,64.31
2019-04-25T06:18:03.850Z,64.4
2019-04-25T06:18:43.969Z,63.73
2019-04-25T06:19:25.001Z,64.02
2019-04-25T06:20:06.090Z,63.06
2019-04-25T06:20:44.385Z,63.54
2019-04-25T06:21:25.633Z,63.16
2019-04-25T06:22:05.523Z,62.58
2019-04-25T06:22:46.248Z,63.06
2019-04-25T06:23:26.933Z,62.77
2019-04-25T06:24:07.502Z,62.81
2019-04-25T06:24:48.072Z,62.52
2019-04-25T06:25:32.614Z,62.42
2019-04-25T06:26:20.507Z,62.23
2019-04-25T06:26:49.787Z,61.75
2019-04-25T06:27:30.392Z,61.27
2019-04-25T06:28:11.016Z,60.69
2019-04-25T06:28:57.632Z,60.69
2019-04-25T06:29:34.458Z,60.57
2019-04-25T06:30:13.953Z,60.66
2019-04-25T06:30:54.072Z,60.69
2019-04-25T06:31:34.200Z,60.78
2019-04-25T06:32:14.455Z,60.69
2019-04-25T06:32:55.420Z,60.78
2019-04-25T06:33:36.034Z,60.91
2019-04-25T06:34:16.634Z,61.68
2019-04-25T06:34:57.231Z,60.34
2019-04-25T06:35:37.789Z,59.66
2019-04-25T06:36:18.348Z,58.54
2019-04-25T06:36:58.906Z,57.87
2019-04-25T06:37:39.467Z,58.06
2019-04-25T06:38:20.511Z,57.97
2019-04-25T06:39:00.602Z,58.83
2019-04-25T06:39:41.279Z,58.92
2019-04-25T06:40:22.356Z,59.15
2019-04-25T06:41:03.536Z,58.47
2019-04-25T06:41:44.125Z,58.22
2019-04-25T06:42:24.755Z,57.54
2019-04-25T06:43:04.317Z,56.87
2019-04-25T06:43:44.907Z,54.65
2019-04-25T06:44:27.115Z,54.39
2019-04-25T06:45:06.102Z,53.91
2019-04-25T06:45:46.715Z,54.49
2019-04-25T06:46:27.299Z,54.87
2019-04-25T06:47:07.869Z,55.09
2019-04-25T06:47:48.535Z,55.29
2019-04-25T06:48:29.200Z,54.32
2019-04-25T06:49:09.795Z,53.58
2019-04-25T06:49:50.378Z,53.19
2019-04-25T06:50:30.945Z,52.81
2019-04-25T06:51:11.522Z,52.71
2019-04-25T06:51:52.183Z,51.65
2019-04-25T06:52:34.303Z,51.36
2019-04-25T06:53:13.656Z,51.36
2019-04-25T06:53:53.839Z,51.84
2019-04-25T06:54:35.230Z,52.23
2019-04-25T06:55:14.981Z,52.42
2019-04-25T06:55:55.588Z,52.23
2019-04-25T06:56:36.161Z,52.52
2019-04-25T06:57:16.727Z,51.56
2019-04-25T06:58:08.815Z,51.36
2019-04-25T06:58:37.938Z,51.07
2019-04-25T06:59:18.606Z,51.26
2019-04-25T06:59:59.164Z,50.78
2019-04-25T07:00:41.296Z,50.59
2019-04-25T07:01:20.362Z,50.37
2019-04-25T07:02:00.926Z,50.47
2019-04-25T07:02:41.514Z,50.47
2019-04-25T07:03:22.883Z,50.66
2019-04-25T07:04:04.047Z,50.66
2019-04-25T07:04:43.429Z,50.66
2019-04-25T07:05:27.472Z,50.57
2019-04-25T07:06:04.376Z,50.35
2019-04-25T07:06:45.575Z,50.93
2019-04-25T07:07:26.587Z,51.21
2019-04-25T07:08:06.168Z,51.31
2019-04-25T07:08:46.743Z,51.5
2019-04-25T07:09:29.409Z,52.25
2019-04-25T07:10:07.929Z,52.63
2019-04-25T07:10:48.487Z,52.54
2019-04-25T07:11:29.091Z,52.15
2019-04-25T07:12:09.676Z,53.11
2019-04-25T07:12:50.276Z,53.98
2019-04-25T07:13:30.815Z,54.36
2019-04-25T07:14:11.414Z,54.56
2019-04-25T07:14:53.744Z,54.3
2019-04-25T07:15:34.060Z,53.84
2019-04-25T07:16:13.437Z,53.07
2019-04-25T07:16:53.718Z,53.36
2019-04-25T07:17:34.937Z,52.61
2019-04-25T07:18:14.897Z,50.69
2019-04-25T07:18:55.513Z,50.42
2019-04-25T07:19:36.155Z,50.4
2019-04-25T07:20:16.759Z,50.13
2019-04-25T07:20:57.326Z,50.13
2019-04-25T07:21:37.923Z,49.39
2019-04-25T07:22:18.497Z,48.61
2019-04-25T07:22:59.089Z,47.65
2019-04-25T07:23:40.400Z,47.96
2019-04-25T07:24:20.282Z,47.96
2019-04-25T07:25:00.914Z,47.29
2019-04-25T07:25:41.540Z,46.61
2019-04-25T07:26:22.140Z,46.83
2019-04-25T07:27:03.740Z,44.32
2019-04-25T07:27:44.679Z,43.26
2019-04-25T07:28:27.556Z,43.45
2019-04-25T07:29:05.341Z,43.35
2019-04-25T07:29:45.137Z,44.32
2019-04-25T07:30:28.145Z,44.9
2019-04-25T07:31:06.393Z,45.18
2019-04-25T07:31:46.973Z,45.28
2019-04-25T07:32:30.009Z,44.43
2019-04-25T07:33:08.518Z,44.15
2019-04-25T07:33:49.111Z,44.15
2019-04-25T07:34:29.700Z,44.34
2019-04-25T07:35:10.340Z,43.76
2019-04-25T07:35:50.914Z,42.79
2019-04-25T07:36:31.520Z,43.66
2019-04-25T07:37:13.224Z,44.15
2019-04-25T07:37:53.984Z,43.18
2019-04-25T07:38:33.990Z,43.59
2019-04-25T07:39:13.960Z,42.62
2019-04-25T07:39:54.519Z,40.98
2019-04-25T07:40:36.019Z,40.98
2019-04-25T07:41:16.339Z,40.59
2019-04-25T07:41:56.310Z,40.5
2019-04-25T07:42:36.916Z,40.4
2019-04-25T07:43:17.506Z,40.4
2019-04-25T07:43:58.130Z,41.25
2019-04-25T07:44:49.626Z,41.66
2019-04-25T07:45:19.331Z,42.14
2019-04-25T07:45:59.887Z,41.56
2019-04-25T07:46:40.489Z,42.04
2019-04-25T07:47:21.076Z,41.08
2019-04-25T07:48:01.650Z,39.82
2019-04-25T07:48:43.805Z,38.68
2019-04-25T07:49:23.443Z,37.98
2019-04-25T07:50:03.979Z,37.5
2019-04-25T07:50:44.099Z,37.98
2019-04-25T07:51:24.681Z,38.16
2019-04-25T07:52:05.292Z,38.16
2019-04-25T07:52:45.888Z,38.74
2019-04-25T07:53:27.261Z,39.22
2019-04-25T07:54:07.019Z,39.78
2019-04-25T07:54:47.608Z,39.87
2019-04-25T07:55:29.173Z,41.13
2019-04-25T07:56:08.808Z,42.68
2019-04-25T07:59:07.746Z,41.93
2019-04-25T07:59:48.336Z,41.05
2019-04-25T08:00:29.559Z,42.41
2019-04-25T08:01:09.539Z,41.83
2019-04-25T08:01:50.128Z,40.96
2019-04-25T08:02:30.721Z,40.19
2019-04-25T08:03:11.276Z,39.8
2019-04-25T08:03:53.565Z,39.97
2019-04-25T08:04:32.600Z,39.99
2019-04-25T08:05:14.351Z,40.17
2019-04-25T08:05:53.839Z,40.36
2019-04-25T08:06:34.540Z,41.13
2019-04-25T08:07:15.028Z,42.48
2019-04-25T08:07:55.617Z,43.35
2019-04-25T08:08:36.240Z,43.35
2019-04-25T08:09:16.808Z,42.58
2019-04-25T08:09:57.386Z,41.42
2019-04-25T08:10:38.147Z,40.75
2019-04-25T08:11:18.574Z,41.33
2019-04-25T08:11:59.173Z,40.96
2019-04-25T08:12:39.747Z,40.57
2019-04-25T08:13:20.345Z,40.47
2019-04-25T08:14:00.904Z,40.28
2019-04-25T08:14:41.472Z,40.19
2019-04-25T08:15:23.528Z,41.33
2019-04-25T08:16:03.377Z,42.02
2019-04-25T08:16:44.258Z,41.73
2019-04-25T08:17:24.004Z,41.15
2019-04-25T08:18:04.410Z,41.25
2019-04-25T08:18:44.975Z,42.79
2019-04-25T08:19:25.557Z,42.7
2019-04-25T08:20:06.136Z,43.08
2019-04-25T08:20:46.697Z,43.47
2019-04-25T08:21:27.325Z,43.47
2019-04-25T08:22:07.890Z,43.47
2019-04-25T08:22:55.402Z,42.62
2019-04-25T08:23:30.756Z,40.78
2019-04-25T08:24:09.660Z,40.98
2019-04-25T08:24:50.242Z,40.69
2019-04-25T08:25:30.854Z,41.46
2019-04-25T08:26:11.395Z,41.85
2019-04-25T08:26:53.412Z,41.85
2019-04-25T08:27:34.151Z,40.2
2019-04-25T08:28:13.766Z,38.85
2019-04-25T08:28:57.132Z,38.74
2019-04-25T08:29:37.551Z,40.19
2019-04-25T08:30:14.877Z,40.38
2019-04-25T08:30:55.476Z,39.99
2019-04-25T08:31:36.326Z,39.8
2019-04-25T08:32:16.651Z,40.09
2019-04-25T08:32:57.225Z,39.9
2019-04-25T08:33:37.789Z,39.12
2019-04-25T08:34:18.371Z,39.29
2019-04-25T08:34:58.946Z,38.81
2019-04-25T08:35:39.539Z,39.11
2019-04-25T08:36:20.174Z,38.99
2019-04-25T08:37:00.750Z,38.21
2019-04-25T08:37:42.103Z,38.6
2019-04-25T08:38:23.736Z,39.18
2019-04-25T08:39:03.337Z,38.87
2019-04-25T08:39:44.891Z,39.06
2019-04-25T08:40:23.865Z,39.94
2019-04-25T08:41:04.323Z,39.94
2019-04-25T08:41:45.639Z,40.51
2019-04-25T08:42:25.591Z,41.09
2019-04-25T08:43:06.182Z,43.41
2019-04-25T08:43:46.741Z,44.37
2019-04-25T08:44:27.321Z,44.95
2019-04-25T08:45:07.936Z,45.04
2019-04-25T08:45:48.500Z,45.55
2019-04-25T08:46:29.086Z,45.17
2019-04-25T08:47:09.653Z,44.49
2019-04-25T08:47:50.271Z,42.56
2019-04-25T08:48:31.329Z,41.2
2019-04-25T08:49:11.391Z,41.2
2019-04-25T08:49:53.715Z,40.72